sensor_id;sensor_type;location;lat;lon;timestamp;pressure;altitude;pressure_sealevel;temperature;humidity
19128;BME280;9696;53.686;10.094;2023-04-01T00:01:33;99354.44;;;10.63;100.00
19128;BME280;9696;53.686;10.094;2023-04-01T00:04:03;99354.28;;;10.65;100.00
19128;BME280;9696;53.686;10.094;2023-04-01T00:06:32;99352.84;;;10.62;100.00
19128;BME280;9696;53.686;10.094;2023-04-01T00:09:01;99351.69;;;10.65;100.00
19128;BME280;9696;53.686;10.094;2023-04-01T00:11:33;99350.53;;;10.59;100.00
19128;BME280;9696;53.686;10.094;2023-04-01T00:14:03;99355.28;;;10.64;100.00
19128;BME280;9696;53.686;10.094;2023-04-01T00:16:33;99358.38;;;10.59;100.00
19128;BME280;9696;53.686;10.094;2023-04-01T00:19:03;99356.09;;;10.56;100.00
19128;BME280;9696;53.686;10.094;2023-04-01T00:21:32;99360.88;;;10.53;100.00
19128;BME280;9696;53.686;10.094;2023-04-01T00:24:04;99358.72;;;10.56;100.00
19128;BME280;9696;53.686;10.094;2023-04-01T00:26:34;99356.47;;;10.45;100.00
19128;BME280;9696;53.686;10.094;2023-04-01T00:29:03;99360.06;;;10.44;100.00
19128;BME280;9696;53.686;10.094;2023-04-01T00:31:35;99358.09;;;10.54;100.00
19128;BME280;9696;53.686;10.094;2023-04-01T00:34:04;99355.78;;;10.51;100.00
19128;BME280;9696;53.686;10.094;2023-04-01T00:36:33;99357.44;;;10.52;100.00
19128;BME280;9696;53.686;10.094;2023-04-01T00:39:03;99361.22;;;10.50;100.00
19128;BME280;9696;53.686;10.094;2023-04-01T00:41:32;99362.03;;;10.50;100.00
19128;BME280;9696;53.686;10.094;2023-04-01T00:44:19;99363.97;;;10.48;100.00
19128;BME280;9696;53.686;10.094;2023-04-01T00:46:50;99363.16;;;10.39;100.00
19128;BME280;9696;53.686;10.094;2023-04-01T00:49:23;99363.16;;;10.48;100.00
19128;BME280;9696;53.686;10.094;2023-04-01T00:51:56;99363.34;;;10.46;100.00
19128;BME280;9696;53.686;10.094;2023-04-01T00:54:28;99361.84;;;10.52;100.00
19128;BME280;9696;53.686;10.094;2023-04-01T00:57:00;99359.72;;;10.55;100.00
19128;BME280;9696;53.686;10.094;2023-04-01T00:59:33;99364.66;;;10.42;100.00
19128;BME280;9696;53.686;10.094;2023-04-01T01:02:07;99366.94;;;10.45;100.00
19128;BME280;9696;53.686;10.094;2023-04-01T01:04:38;99367.09;;;10.35;100.00
19128;BME280;9696;53.686;10.094;2023-04-01T01:07:16;99362.84;;;10.43;100.00
19128;BME280;9696;53.686;10.094;2023-04-01T01:09:54;99364.47;;;10.52;100.00
19128;BME280;9696;53.686;10.094;2023-04-01T01:12:34;99367.28;;;10.50;100.00
19128;BME280;9696;53.686;10.094;2023-04-01T01:15:13;99362.03;;;10.42;100.00
19128;BME280;9696;53.686;10.094;2023-04-01T01:17:53;99366.78;;;10.38;100.00
19128;BME280;9696;53.686;10.094;2023-04-01T01:20:36;99367.28;;;10.34;100.00
19128;BME280;9696;53.686;10.094;2023-04-01T01:23:36;99370.88;;;10.33;100.00
19128;BME280;9696;53.686;10.094;2023-04-01T01:29:40;99370.88;;;10.33;100.00
19128;BME280;9696;53.686;10.094;2023-04-01T01:32:19;99374.31;;;10.33;100.00
19128;BME280;9696;53.686;10.094;2023-04-01T01:35:05;99372.34;;;10.44;100.00
19128;BME280;9696;53.686;10.094;2023-04-01T01:37:38;99368.94;;;10.35;100.00
19128;BME280;9696;53.686;10.094;2023-04-01T01:40:11;99372.81;;;10.39;100.00
19128;BME280;9696;53.686;10.094;2023-04-01T01:42:45;99374.00;;;10.36;100.00
19128;BME280;9696;53.686;10.094;2023-04-01T01:45:20;99375.78;;;10.36;100.00
19128;BME280;9696;53.686;10.094;2023-04-01T01:47:51;99376.78;;;10.35;100.00
19128;BME280;9696;53.686;10.094;2023-04-01T01:50:22;99379.56;;;10.33;100.00
19128;BME280;9696;53.686;10.094;2023-04-01T01:53:01;99375.31;;;10.32;100.00
19128;BME280;9696;53.686;10.094;2023-04-01T01:55:32;99378.75;;;10.25;100.00
19128;BME280;9696;53.686;10.094;2023-04-01T01:58:06;99383.50;;;10.21;100.00
19128;BME280;9696;53.686;10.094;2023-04-01T02:00:40;99382.03;;;10.19;100.00
19128;BME280;9696;53.686;10.094;2023-04-01T02:03:13;99386.22;;;10.12;100.00
19128;BME280;9696;53.686;10.094;2023-04-01T02:05:45;99383.81;;;10.18;100.00
19128;BME280;9696;53.686;10.094;2023-04-01T02:08:18;99381.84;;;10.20;100.00
19128;BME280;9696;53.686;10.094;2023-04-01T02:10:55;99383.34;;;10.23;100.00
19128;BME280;9696;53.686;10.094;2023-04-01T02:13:31;99385.25;;;10.13;100.00
19128;BME280;9696;53.686;10.094;2023-04-01T02:16:05;99384.94;;;10.16;100.00
19128;BME280;9696;53.686;10.094;2023-04-01T02:18:37;99386.13;;;10.21;100.00
19128;BME280;9696;53.686;10.094;2023-04-01T02:21:09;99392.66;;;10.17;100.00
19128;BME280;9696;53.686;10.094;2023-04-01T02:23:39;99385.78;;;10.16;100.00
19128;BME280;9696;53.686;10.094;2023-04-01T02:26:10;99387.56;;;10.16;100.00
19128;BME280;9696;53.686;10.094;2023-04-01T02:28:41;99391.31;;;10.13;100.00
19128;BME280;9696;53.686;10.094;2023-04-01T02:31:14;99391.84;;;10.17;100.00
19128;BME280;9696;53.686;10.094;2023-04-01T02:33:43;99390.16;;;10.08;100.00
19128;BME280;9696;53.686;10.094;2023-04-01T02:36:15;99386.22;;;10.12;100.00
19128;BME280;9696;53.686;10.094;2023-04-01T02:38:46;99397.88;;;10.09;100.00
19128;BME280;9696;53.686;10.094;2023-04-01T02:41:15;99397.53;;;10.12;100.00
19128;BME280;9696;53.686;10.094;2023-04-01T02:43:44;99395.25;;;10.09;100.00
19128;BME280;9696;53.686;10.094;2023-04-01T02:46:13;99397.72;;;10.11;100.00
19128;BME280;9696;53.686;10.094;2023-04-01T02:48:42;99399.03;;;10.07;100.00
19128;BME280;9696;53.686;10.094;2023-04-01T02:51:12;99403.44;;;10.06;100.00
19128;BME280;9696;53.686;10.094;2023-04-01T02:53:44;99401.63;;;10.07;100.00
19128;BME280;9696;53.686;10.094;2023-04-01T02:56:13;99405.56;;;10.11;100.00
19128;BME280;9696;53.686;10.094;2023-04-01T02:58:43;99414.06;;;10.05;100.00
19128;BME280;9696;53.686;10.094;2023-04-01T03:01:12;99413.91;;;10.06;100.00
19128;BME280;9696;53.686;10.094;2023-04-01T03:03:41;99409.16;;;10.10;100.00
19128;BME280;9696;53.686;10.094;2023-04-01T03:06:12;99413.41;;;10.03;100.00
19128;BME280;9696;53.686;10.094;2023-04-01T03:08:43;99413.72;;;10.00;100.00
19128;BME280;9696;53.686;10.094;2023-04-01T03:11:13;99420.94;;;10.06;100.00
19128;BME280;9696;53.686;10.094;2023-04-01T03:13:42;99421.78;;;10.06;100.00
19128;BME280;9696;53.686;10.094;2023-04-01T03:16:11;99420.78;;;9.99;100.00
19128;BME280;9696;53.686;10.094;2023-04-01T03:18:41;99423.41;;;9.99;100.00
19128;BME280;9696;53.686;10.094;2023-04-01T03:21:14;99422.41;;;10.08;100.00
19128;BME280;9696;53.686;10.094;2023-04-01T03:23:45;99428.13;;;10.04;100.00
19128;BME280;9696;53.686;10.094;2023-04-01T03:26:14;99428.66;;;10.07;100.00
19128;BME280;9696;53.686;10.094;2023-04-01T03:28:44;99419.50;;;10.03;100.00
19128;BME280;9696;53.686;10.094;2023-04-01T03:31:14;99435.84;;;10.05;100.00
19128;BME280;9696;53.686;10.094;2023-04-01T03:33:50;99425.72;;;10.10;100.00
19128;BME280;9696;53.686;10.094;2023-04-01T03:36:19;99434.06;;;10.06;100.00
19128;BME280;9696;53.686;10.094;2023-04-01T03:38:50;99430.13;;;10.10;100.00
19128;BME280;9696;53.686;10.094;2023-04-01T03:41:25;99426.53;;;10.03;100.00
19128;BME280;9696;53.686;10.094;2023-04-01T03:43:54;99437.50;;;10.06;100.00
19128;BME280;9696;53.686;10.094;2023-04-01T03:46:23;99432.63;;;10.19;100.00
19128;BME280;9696;53.686;10.094;2023-04-01T03:48:52;99431.59;;;10.12;100.00
19128;BME280;9696;53.686;10.094;2023-04-01T03:51:22;99433.22;;;10.05;100.00
19128;BME280;9696;53.686;10.094;2023-04-01T03:53:52;99432.59;;;10.11;100.00
19128;BME280;9696;53.686;10.094;2023-04-01T03:56:22;99437.00;;;10.11;100.00
19128;BME280;9696;53.686;10.094;2023-04-01T03:58:51;99441.09;;;10.05;100.00
19128;BME280;9696;53.686;10.094;2023-04-01T04:01:21;99441.97;;;10.22;100.00
19128;BME280;9696;53.686;10.094;2023-04-01T04:03:54;99447.16;;;10.14;100.00
19128;BME280;9696;53.686;10.094;2023-04-01T04:06:24;99448.66;;;10.16;100.00
19128;BME280;9696;53.686;10.094;2023-04-01T04:08:55;99449.03;;;10.29;100.00
19128;BME280;9696;53.686;10.094;2023-04-01T04:11:24;99444.59;;;10.30;100.00
19128;BME280;9696;53.686;10.094;2023-04-01T04:13:53;99455.41;;;10.27;100.00
19128;BME280;9696;53.686;10.094;2023-04-01T04:16:25;99456.03;;;10.21;100.00
19128;BME280;9696;53.686;10.094;2023-04-01T04:18:59;99466.13;;;10.00;100.00
19128;BME280;9696;53.686;10.094;2023-04-01T04:21:28;99473.09;;;9.75;100.00
19128;BME280;9696;53.686;10.094;2023-04-01T04:24:00;99468.63;;;9.59;100.00
19128;BME280;9696;53.686;10.094;2023-04-01T04:26:48;99464.56;;;9.31;100.00
19128;BME280;9696;53.686;10.094;2023-04-01T04:29:17;99469.63;;;9.32;100.00
19128;BME280;9696;53.686;10.094;2023-04-01T04:31:46;99476.72;;;9.14;100.00
19128;BME280;9696;53.686;10.094;2023-04-01T04:34:15;99478.00;;;9.10;100.00
19128;BME280;9696;53.686;10.094;2023-04-01T04:36:46;99481.47;;;8.93;100.00
19128;BME280;9696;53.686;10.094;2023-04-01T04:39:17;99490.19;;;9.02;100.00
19128;BME280;9696;53.686;10.094;2023-04-01T04:41:46;99493.00;;;8.82;100.00
19128;BME280;9696;53.686;10.094;2023-04-01T04:44:15;99504.59;;;8.80;100.00
19128;BME280;9696;53.686;10.094;2023-04-01T04:46:45;99505.78;;;8.85;100.00
19128;BME280;9696;53.686;10.094;2023-04-01T04:49:15;99518.50;;;8.63;100.00
19128;BME280;9696;53.686;10.094;2023-04-01T04:51:45;99518.13;;;8.40;100.00
19128;BME280;9696;53.686;10.094;2023-04-01T04:54:17;99520.53;;;8.33;100.00
19128;BME280;9696;53.686;10.094;2023-04-01T04:56:52;99520.66;;;8.49;100.00
19128;BME280;9696;53.686;10.094;2023-04-01T04:59:23;99532.09;;;8.48;100.00
19128;BME280;9696;53.686;10.094;2023-04-01T05:02:00;99523.91;;;8.16;100.00
19128;BME280;9696;53.686;10.094;2023-04-01T05:04:33;99527.56;;;8.23;100.00
19128;BME280;9696;53.686;10.094;2023-04-01T05:07:02;99527.91;;;8.11;100.00
19128;BME280;9696;53.686;10.094;2023-04-01T05:09:33;99530.59;;;8.01;100.00
19128;BME280;9696;53.686;10.094;2023-04-01T05:12:03;99532.94;;;7.94;100.00
19128;BME280;9696;53.686;10.094;2023-04-01T05:15:09;99543.97;;;7.88;100.00
19128;BME280;9696;53.686;10.094;2023-04-01T05:17:39;99546.16;;;7.93;100.00
19128;BME280;9696;53.686;10.094;2023-04-01T05:20:12;99536.44;;;7.85;100.00
19128;BME280;9696;53.686;10.094;2023-04-01T05:22:42;99545.53;;;7.81;100.00
19128;BME280;9696;53.686;10.094;2023-04-01T05:25:13;99554.41;;;7.88;100.00
19128;BME280;9696;53.686;10.094;2023-04-01T05:27:42;99558.72;;;7.80;100.00
19128;BME280;9696;53.686;10.094;2023-04-01T05:30:12;99570.41;;;7.76;100.00
19128;BME280;9696;53.686;10.094;2023-04-01T05:32:53;99562.66;;;7.56;100.00
19128;BME280;9696;53.686;10.094;2023-04-01T05:35:22;99569.66;;;7.56;100.00
19128;BME280;9696;53.686;10.094;2023-04-01T05:37:52;99570.88;;;7.52;100.00
19128;BME280;9696;53.686;10.094;2023-04-01T05:40:23;99574.63;;;7.49;100.00
19128;BME280;9696;53.686;10.094;2023-04-01T05:42:52;99575.41;;;7.59;100.00
19128;BME280;9696;53.686;10.094;2023-04-01T05:45:21;99584.34;;;7.57;100.00
19128;BME280;9696;53.686;10.094;2023-04-01T05:48:09;99585.47;;;7.45;100.00
19128;BME280;9696;53.686;10.094;2023-04-01T05:50:41;99588.50;;;7.50;100.00
19128;BME280;9696;53.686;10.094;2023-04-01T05:53:11;99587.97;;;7.27;100.00
19128;BME280;9696;53.686;10.094;2023-04-01T05:55:44;99591.66;;;7.44;100.00
19128;BME280;9696;53.686;10.094;2023-04-01T05:58:14;99596.22;;;7.13;100.00
19128;BME280;9696;53.686;10.094;2023-04-01T06:00:46;99602.94;;;7.25;100.00
19128;BME280;9696;53.686;10.094;2023-04-01T06:03:29;99604.97;;;7.31;100.00
19128;BME280;9696;53.686;10.094;2023-04-01T06:05:58;99604.84;;;7.33;100.00
19128;BME280;9696;53.686;10.094;2023-04-01T06:08:31;99619.97;;;7.10;100.00
19128;BME280;9696;53.686;10.094;2023-04-01T06:11:12;99619.72;;;7.23;100.00
19128;BME280;9696;53.686;10.094;2023-04-01T06:14:00;99620.09;;;7.08;100.00
19128;BME280;9696;53.686;10.094;2023-04-01T06:16:44;99623.53;;;7.09;100.00
19128;BME280;9696;53.686;10.094;2023-04-01T06:19:28;99625.88;;;7.02;100.00
19128;BME280;9696;53.686;10.094;2023-04-01T06:22:26;99633.03;;;6.91;100.00
19128;BME280;9696;53.686;10.094;2023-04-01T06:25:20;99633.84;;;7.01;100.00
19128;BME280;9696;53.686;10.094;2023-04-01T06:28:10;99637.66;;;6.97;100.00
19128;BME280;9696;53.686;10.094;2023-04-01T06:30:47;99649.72;;;6.88;100.00
19128;BME280;9696;53.686;10.094;2023-04-01T06:33:40;99647.28;;;6.87;100.00
19128;BME280;9696;53.686;10.094;2023-04-01T06:36:34;99658.22;;;6.81;100.00
19128;BME280;9696;53.686;10.094;2023-04-01T06:39:23;99655.63;;;6.81;100.00
19128;BME280;9696;53.686;10.094;2023-04-01T06:42:12;99665.38;;;6.79;100.00
19128;BME280;9696;53.686;10.094;2023-04-01T06:44:52;99667.16;;;6.78;100.00
19128;BME280;9696;53.686;10.094;2023-04-01T06:47:52;99663.88;;;6.86;100.00
19128;BME280;9696;53.686;10.094;2023-04-01T06:50:48;99672.38;;;6.97;100.00
19128;BME280;9696;53.686;10.094;2023-04-01T06:53:45;99680.34;;;6.96;100.00
19128;BME280;9696;53.686;10.094;2023-04-01T06:56:48;99686.09;;;6.90;100.00
19128;BME280;9696;53.686;10.094;2023-04-01T06:59:27;99695.66;;;6.80;100.00
19128;BME280;9696;53.686;10.094;2023-04-01T07:02:01;99693.06;;;6.80;100.00
19128;BME280;9696;53.686;10.094;2023-04-01T07:04:34;99691.84;;;6.74;100.00
19128;BME280;9696;53.686;10.094;2023-04-01T07:07:08;99697.72;;;6.76;100.00
19128;BME280;9696;53.686;10.094;2023-04-01T07:09:55;99692.50;;;6.67;100.00
19128;BME280;9696;53.686;10.094;2023-04-01T07:12:37;99705.56;;;6.86;100.00
19128;BME280;9696;53.686;10.094;2023-04-01T07:15:33;99711.72;;;6.75;100.00
19128;BME280;9696;53.686;10.094;2023-04-01T07:18:12;99713.91;;;6.70;100.00
19128;BME280;9696;53.686;10.094;2023-04-01T07:20:45;99716.50;;;6.70;100.00
19128;BME280;9696;53.686;10.094;2023-04-01T07:23:21;99728.34;;;6.93;100.00
19128;BME280;9696;53.686;10.094;2023-04-01T07:26:01;99725.56;;;6.76;100.00
19128;BME280;9696;53.686;10.094;2023-04-01T07:28:38;99720.69;;;6.52;100.00
19128;BME280;9696;53.686;10.094;2023-04-01T07:31:45;99744.06;;;6.73;100.00
19128;BME280;9696;53.686;10.094;2023-04-01T07:34:23;99748.00;;;6.57;100.00
19128;BME280;9696;53.686;10.094;2023-04-01T07:37:02;99749.06;;;6.45;100.00
19128;BME280;9696;53.686;10.094;2023-04-01T07:39:40;99757.03;;;6.53;100.00
19128;BME280;9696;53.686;10.094;2023-04-01T07:42:38;99762.53;;;6.60;100.00
19128;BME280;9696;53.686;10.094;2023-04-01T07:45:16;99758.31;;;6.69;100.00
19128;BME280;9696;53.686;10.094;2023-04-01T07:48:00;99766.31;;;6.77;100.00
19128;BME280;9696;53.686;10.094;2023-04-01T07:50:39;99763.97;;;6.74;100.00
19128;BME280;9696;53.686;10.094;2023-04-01T07:53:17;99752.28;;;6.68;100.00
19128;BME280;9696;53.686;10.094;2023-04-01T07:55:57;99775.78;;;6.78;100.00
19128;BME280;9696;53.686;10.094;2023-04-01T07:58:38;99780.31;;;6.45;100.00
19128;BME280;9696;53.686;10.094;2023-04-01T08:01:19;99784.22;;;6.60;100.00
19128;BME280;9696;53.686;10.094;2023-04-01T08:04:05;99789.97;;;6.64;100.00
19128;BME280;9696;53.686;10.094;2023-04-01T08:06:47;99794.06;;;6.57;100.00
19128;BME280;9696;53.686;10.094;2023-04-01T08:09:25;99797.97;;;6.72;100.00
19128;BME280;9696;53.686;10.094;2023-04-01T08:12:24;99805.38;;;6.67;100.00
19128;BME280;9696;53.686;10.094;2023-04-01T08:15:21;99812.63;;;6.63;100.00
19128;BME280;9696;53.686;10.094;2023-04-01T08:18:15;99813.09;;;6.78;100.00
19128;BME280;9696;53.686;10.094;2023-04-01T08:20:50;99819.56;;;6.53;100.00
19128;BME280;9696;53.686;10.094;2023-04-01T08:23:26;99817.22;;;6.30;100.00
19128;BME280;9696;53.686;10.094;2023-04-01T08:26:00;99821.13;;;6.35;100.00
19128;BME280;9696;53.686;10.094;2023-04-01T08:28:39;99826.69;;;6.51;100.00
19128;BME280;9696;53.686;10.094;2023-04-01T08:31:13;99833.16;;;6.57;100.00
19128;BME280;9696;53.686;10.094;2023-04-01T08:33:47;99818.06;;;6.51;100.00
19128;BME280;9696;53.686;10.094;2023-04-01T08:36:19;99846.63;;;6.62;100.00
19128;BME280;9696;53.686;10.094;2023-04-01T08:39:06;99841.31;;;6.73;100.00
19128;BME280;9696;53.686;10.094;2023-04-01T08:42:12;99851.66;;;6.84;100.00
19128;BME280;9696;53.686;10.094;2023-04-01T08:45:05;99855.88;;;6.76;100.00
19128;BME280;9696;53.686;10.094;2023-04-01T08:47:49;99858.09;;;6.80;100.00
19128;BME280;9696;53.686;10.094;2023-04-01T08:53:51;99862.16;;;6.73;100.00
19128;BME280;9696;53.686;10.094;2023-04-01T08:56:36;99867.72;;;6.59;100.00
19128;BME280;9696;53.686;10.094;2023-04-01T08:59:29;99871.34;;;6.98;100.00
19128;BME280;9696;53.686;10.094;2023-04-01T09:02:30;99867.47;;;6.92;100.00
19128;BME280;9696;53.686;10.094;2023-04-01T09:05:35;99871.38;;;6.77;100.00
19128;BME280;9696;53.686;10.094;2023-04-01T09:08:17;99871.47;;;6.96;100.00
19128;BME280;9696;53.686;10.094;2023-04-01T09:11:16;99881.38;;;6.72;100.00
19128;BME280;9696;53.686;10.094;2023-04-01T09:14:11;99876.78;;;6.85;100.00
19128;BME280;9696;53.686;10.094;2023-04-01T09:17:16;99881.03;;;6.86;100.00
19128;BME280;9696;53.686;10.094;2023-04-01T09:20:07;99892.06;;;6.69;100.00
19128;BME280;9696;53.686;10.094;2023-04-01T09:22:50;99892.50;;;6.74;100.00
19128;BME280;9696;53.686;10.094;2023-04-01T09:25:44;99904.16;;;7.00;100.00
19128;BME280;9696;53.686;10.094;2023-04-01T09:28:19;99909.19;;;6.72;100.00
19128;BME280;9696;53.686;10.094;2023-04-01T09:31:08;99912.63;;;6.93;100.00
19128;BME280;9696;53.686;10.094;2023-04-01T09:34:20;99915.94;;;6.74;100.00
19128;BME280;9696;53.686;10.094;2023-04-01T09:37:17;99924.97;;;6.70;100.00
19128;BME280;9696;53.686;10.094;2023-04-01T09:40:08;99929.63;;;6.67;100.00
19128;BME280;9696;53.686;10.094;2023-04-01T09:43:16;99943.16;;;6.81;100.00
19128;BME280;9696;53.686;10.094;2023-04-01T09:46:07;99939.22;;;6.66;100.00
19128;BME280;9696;53.686;10.094;2023-04-01T09:51:53;99950.66;;;6.75;100.00
19128;BME280;9696;53.686;10.094;2023-04-01T09:54:36;99939.78;;;6.90;100.00
19128;BME280;9696;53.686;10.094;2023-04-01T09:57:39;99952.91;;;6.79;100.00
19128;BME280;9696;53.686;10.094;2023-04-01T10:00:55;99954.53;;;6.80;100.00
19128;BME280;9696;53.686;10.094;2023-04-01T10:04:06;99957.00;;;7.02;100.00
19128;BME280;9696;53.686;10.094;2023-04-01T10:10:31;99954.78;;;6.98;100.00
19128;BME280;9696;53.686;10.094;2023-04-01T10:13:28;99967.72;;;7.30;100.00
19128;BME280;9696;53.686;10.094;2023-04-01T10:16:30;99967.00;;;7.28;100.00
19128;BME280;9696;53.686;10.094;2023-04-01T10:25:51;99977.53;;;6.96;100.00
19128;BME280;9696;53.686;10.094;2023-04-01T10:28:37;99991.31;;;7.07;100.00
19128;BME280;9696;53.686;10.094;2023-04-01T10:37:43;100001.75;;;6.66;100.00
19128;BME280;9696;53.686;10.094;2023-04-01T10:44:01;99993.47;;;6.61;100.00
19128;BME280;9696;53.686;10.094;2023-04-01T10:53:17;100014.66;;;6.88;100.00
19128;BME280;9696;53.686;10.094;2023-04-01T11:00:12;100025.09;;;6.88;100.00
19128;BME280;9696;53.686;10.094;2023-04-01T11:06:59;100029.41;;;6.78;100.00
19128;BME280;9696;53.686;10.094;2023-04-01T11:13:14;100032.31;;;6.64;100.00
19128;BME280;9696;53.686;10.094;2023-04-01T11:16:24;100039.53;;;6.92;100.00
19128;BME280;9696;53.686;10.094;2023-04-01T11:22:13;100047.06;;;6.54;100.00
19128;BME280;9696;53.686;10.094;2023-04-01T11:25:24;100061.94;;;6.63;100.00
19128;BME280;9696;53.686;10.094;2023-04-01T11:28:27;100064.00;;;6.80;100.00
19128;BME280;9696;53.686;10.094;2023-04-01T11:31:22;100069.84;;;6.73;100.00
19128;BME280;9696;53.686;10.094;2023-04-01T11:34:01;100077.22;;;6.68;100.00
19128;BME280;9696;53.686;10.094;2023-04-01T11:36:40;100073.56;;;6.48;100.00
19128;BME280;9696;53.686;10.094;2023-04-01T11:39:27;100071.19;;;6.67;100.00
19128;BME280;9696;53.686;10.094;2023-04-01T11:42:15;100086.75;;;6.78;100.00
19128;BME280;9696;53.686;10.094;2023-04-01T11:45:28;100079.66;;;6.37;100.00
19128;BME280;9696;53.686;10.094;2023-04-01T11:48:25;100084.19;;;6.67;100.00
19128;BME280;9696;53.686;10.094;2023-04-01T11:51:16;100093.66;;;7.00;100.00
19128;BME280;9696;53.686;10.094;2023-04-01T11:53:57;100108.13;;;6.61;100.00
19128;BME280;9696;53.686;10.094;2023-04-01T11:56:49;100106.38;;;6.50;100.00
19128;BME280;9696;53.686;10.094;2023-04-01T11:59:38;100116.47;;;6.44;100.00
19128;BME280;9696;53.686;10.094;2023-04-01T12:02:23;100121.09;;;6.29;100.00
19128;BME280;9696;53.686;10.094;2023-04-01T12:05:12;100106.63;;;6.36;100.00
19128;BME280;9696;53.686;10.094;2023-04-01T12:08:10;100109.50;;;6.33;100.00
19128;BME280;9696;53.686;10.094;2023-04-01T12:10:48;100121.69;;;6.33;100.00
19128;BME280;9696;53.686;10.094;2023-04-01T12:13:32;100132.84;;;6.24;100.00
19128;BME280;9696;53.686;10.094;2023-04-01T12:16:21;100142.78;;;6.30;100.00
19128;BME280;9696;53.686;10.094;2023-04-01T12:18:56;100136.72;;;6.40;100.00
19128;BME280;9696;53.686;10.094;2023-04-01T12:21:31;100146.16;;;6.52;100.00
19128;BME280;9696;53.686;10.094;2023-04-01T12:30:26;100157.91;;;6.47;100.00
19128;BME280;9696;53.686;10.094;2023-04-01T12:33:13;100164.31;;;6.43;100.00
19128;BME280;9696;53.686;10.094;2023-04-01T12:35:56;100171.88;;;6.46;100.00
19128;BME280;9696;53.686;10.094;2023-04-01T12:38:39;100172.72;;;6.46;100.00
19128;BME280;9696;53.686;10.094;2023-04-01T12:41:21;100171.06;;;6.34;100.00
19128;BME280;9696;53.686;10.094;2023-04-01T12:44:16;100176.75;;;6.39;100.00
19128;BME280;9696;53.686;10.094;2023-04-01T12:47:17;100190.13;;;6.24;100.00
19128;BME280;9696;53.686;10.094;2023-04-01T12:50:23;100184.69;;;6.27;100.00
19128;BME280;9696;53.686;10.094;2023-04-01T12:53:06;100192.50;;;6.38;100.00
19128;BME280;9696;53.686;10.094;2023-04-01T12:55:40;100200.78;;;6.43;100.00
19128;BME280;9696;53.686;10.094;2023-04-01T12:58:44;100189.41;;;6.33;100.00
19128;BME280;9696;53.686;10.094;2023-04-01T13:01:29;100202.44;;;6.33;100.00
19128;BME280;9696;53.686;10.094;2023-04-01T13:04:32;100214.63;;;6.32;100.00
19128;BME280;9696;53.686;10.094;2023-04-01T13:10:13;100224.09;;;6.33;100.00
19128;BME280;9696;53.686;10.094;2023-04-01T13:13:05;100230.97;;;6.34;100.00
19128;BME280;9696;53.686;10.094;2023-04-01T13:15:42;100240.91;;;6.29;100.00
19128;BME280;9696;53.686;10.094;2023-04-01T13:18:22;100236.72;;;6.04;100.00
19128;BME280;9696;53.686;10.094;2023-04-01T13:21:03;100233.06;;;6.07;100.00
19128;BME280;9696;53.686;10.094;2023-04-01T13:23:44;100247.88;;;6.06;100.00
19128;BME280;9696;53.686;10.094;2023-04-01T13:26:22;100248.25;;;6.24;100.00
19128;BME280;9696;53.686;10.094;2023-04-01T13:29:02;100252.59;;;6.12;100.00
19128;BME280;9696;53.686;10.094;2023-04-01T13:31:41;100250.69;;;5.92;100.00
19128;BME280;9696;53.686;10.094;2023-04-01T13:34:27;100261.59;;;6.08;100.00
19128;BME280;9696;53.686;10.094;2023-04-01T13:37:13;100256.59;;;5.94;100.00
19128;BME280;9696;53.686;10.094;2023-04-01T13:40:02;100269.19;;;6.23;100.00
19128;BME280;9696;53.686;10.094;2023-04-01T13:42:43;100270.47;;;5.71;100.00
19128;BME280;9696;53.686;10.094;2023-04-01T13:45:18;100266.78;;;5.97;100.00
19128;BME280;9696;53.686;10.094;2023-04-01T13:51:15;100287.03;;;6.05;100.00
19128;BME280;9696;53.686;10.094;2023-04-01T13:57:09;100297.94;;;6.21;100.00
19128;BME280;9696;53.686;10.094;2023-04-01T13:59:59;100293.50;;;5.88;100.00
19128;BME280;9696;53.686;10.094;2023-04-01T14:02:59;100303.75;;;6.25;100.00
19128;BME280;9696;53.686;10.094;2023-04-01T14:05:48;100300.16;;;6.03;100.00
19128;BME280;9696;53.686;10.094;2023-04-01T14:08:37;100312.88;;;6.19;100.00
19128;BME280;9696;53.686;10.094;2023-04-01T14:11:19;100321.69;;;6.05;100.00
19128;BME280;9696;53.686;10.094;2023-04-01T14:13:59;100318.97;;;5.96;100.00
19128;BME280;9696;53.686;10.094;2023-04-01T14:17:00;100322.56;;;6.17;100.00
19128;BME280;9696;53.686;10.094;2023-04-01T14:19:51;100318.56;;;6.24;100.00
19128;BME280;9696;53.686;10.094;2023-04-01T14:22:37;100334.53;;;6.20;100.00
19128;BME280;9696;53.686;10.094;2023-04-01T14:25:39;100332.88;;;6.19;100.00
19128;BME280;9696;53.686;10.094;2023-04-01T14:28:23;100343.47;;;6.04;100.00
19128;BME280;9696;53.686;10.094;2023-04-01T14:31:27;100342.69;;;6.15;100.00
19128;BME280;9696;53.686;10.094;2023-04-01T14:34:06;100345.69;;;5.98;100.00
19128;BME280;9696;53.686;10.094;2023-04-01T14:37:00;100353.50;;;5.98;100.00
19128;BME280;9696;53.686;10.094;2023-04-01T14:39:47;100357.88;;;5.97;100.00
19128;BME280;9696;53.686;10.094;2023-04-01T14:45:36;100361.94;;;6.12;100.00
19128;BME280;9696;53.686;10.094;2023-04-01T14:48:21;100368.84;;;5.90;100.00
19128;BME280;9696;53.686;10.094;2023-04-01T14:50:54;100371.59;;;5.88;100.00
19128;BME280;9696;53.686;10.094;2023-04-01T14:53:28;100367.34;;;5.75;100.00
19128;BME280;9696;53.686;10.094;2023-04-01T14:55:58;100387.88;;;5.66;100.00
19128;BME280;9696;53.686;10.094;2023-04-01T14:58:41;100386.09;;;5.67;100.00
19128;BME280;9696;53.686;10.094;2023-04-01T15:01:29;100385.00;;;5.82;100.00
19128;BME280;9696;53.686;10.094;2023-04-01T15:04:18;100390.16;;;5.71;100.00
19128;BME280;9696;53.686;10.094;2023-04-01T15:07:03;100393.13;;;5.54;100.00
19128;BME280;9696;53.686;10.094;2023-04-01T15:09:42;100397.13;;;5.70;100.00
19128;BME280;9696;53.686;10.094;2023-04-01T15:12:20;100402.56;;;5.67;100.00
19128;BME280;9696;53.686;10.094;2023-04-01T15:15:02;100410.22;;;5.69;100.00